Time;durP1;ratioP1;P1;durP2;ratioP2;P2;SDS_P1;SDS_P2;PMS_P1;PMS_P2;Temp;Humidity;BMP_temperature;BMP_pressure;BME280_temperature;BME280_humidity;BME280_pressure;Samples;Min_cycle;Max_cycle;Signal;HPM_P1;HPM_P2
2022/04/24 00:01:37;;;;;;;7.33;3.13;;;14.80;99.90;;;;;;5049721;28;20802;-72
2022/04/24 00:04:05;;;;;;;9.40;3.67;;;14.70;99.90;;;;;;5049379;28;20449;-70
2022/04/24 00:06:32;;;;;;;5.70;3.07;;;14.70;99.90;;;;;;5049453;28;21029;-72
2022/04/24 00:09:01;;;;;;;5.77;3.50;;;14.70;99.90;;;;;;5049153;28;20496;-73
2022/04/24 00:11:30;;;;;;;5.80;3.30;;;14.70;99.90;;;;;;5048751;28;20496;-72
2022/04/24 00:13:57;;;;;;;9.13;4.23;;;14.80;99.90;;;;;;5049538;28;20826;-73
2022/04/24 00:16:24;;;;;;;7.70;4.67;;;14.80;99.90;;;;;;5049228;28;21191;-72
2022/04/24 00:18:51;;;;;;;8.23;4.20;;;14.70;99.90;;;;;;5049040;28;20450;-71
2022/04/24 00:21:18;;;;;;;11.87;4.17;;;14.70;99.90;;;;;;5049126;28;20480;-72
2022/04/24 00:23:45;;;;;;;7.40;3.60;;;14.70;99.90;;;;;;5049180;28;20446;-73
2022/04/24 00:26:13;;;;;;;8.27;4.13;;;14.70;99.90;;;;;;5049311;28;20450;-71
2022/04/24 00:28:40;;;;;;;9.27;4.53;;;14.70;99.90;;;;;;5049232;28;20779;-72
2022/04/24 00:31:07;;;;;;;12.03;4.60;;;14.60;99.90;;;;;;5048833;28;20480;-72
2022/04/24 00:33:34;;;;;;;12.30;5.33;;;14.60;99.90;;;;;;5048901;28;20453;-71
2022/04/24 00:36:01;;;;;;;11.37;4.80;;;14.70;99.90;;;;;;5049088;28;20454;-72
2022/04/24 00:38:28;;;;;;;14.13;5.37;;;14.60;99.90;;;;;;5049062;28;20926;-71
2022/04/24 00:40:56;;;;;;;13.17;5.07;;;14.50;99.90;;;;;;5048563;28;20474;-73
2022/04/24 00:43:25;;;;;;;11.40;5.60;;;14.50;99.90;;;;;;5049025;28;20453;-72
2022/04/24 00:46:11;;;;;;;10.17;4.70;;;14.50;99.90;;;;;;5049089;28;20453;-71
2022/04/24 00:48:39;;;;;;;9.20;5.33;;;14.50;99.90;;;;;;5048732;28;20477;-73
2022/04/24 00:51:06;;;;;;;10.43;5.20;;;14.60;99.90;;;;;;5049029;28;20458;-72
2022/04/24 00:53:33;;;;;;;10.90;4.83;;;14.50;99.90;;;;;;5048995;28;20446;-71
2022/04/24 00:56:01;;;;;;;7.70;4.90;;;14.50;99.90;;;;;;5048984;28;20446;-72
2022/04/24 00:58:30;;;;;;;12.63;6.10;;;14.40;99.90;;;;;;5051481;28;20450;-71
2022/04/24 01:00:57;;;;;;;7.30;4.70;;;14.30;99.90;;;;;;5052241;28;20966;-72
2022/04/24 01:03:25;;;;;;;12.83;5.07;;;14.30;99.90;;;;;;5052392;28;20456;-72
2022/04/24 01:05:52;;;;;;;8.87;4.40;;;14.30;99.90;;;;;;5052597;28;20768;-71
2022/04/24 01:08:19;;;;;;;8.67;5.00;;;14.30;99.90;;;;;;5052276;28;20492;-73
2022/04/24 01:10:47;;;;;;;8.00;4.43;;;14.30;99.90;;;;;;5052061;28;20465;-72
2022/04/24 01:13:14;;;;;;;9.30;5.00;;;14.20;99.90;;;;;;5052120;28;20815;-72
2022/04/24 01:15:43;;;;;;;9.57;3.97;;;14.10;99.90;;;;;;5052102;28;20457;-72
2022/04/24 01:18:10;;;;;;;8.17;4.80;;;14.10;99.90;;;;;;5052271;28;20453;-72
2022/04/24 01:20:38;;;;;;;9.07;4.20;;;14.10;99.90;;;;;;5051605;28;20465;-73
2022/04/24 01:23:06;;;;;;;11.47;5.50;;;14.10;99.90;;;;;;5051563;28;21024;-72
2022/04/24 01:25:33;;;;;;;11.00;6.40;;;14.10;99.90;;;;;;5051827;28;20458;-72
2022/04/24 01:28:00;;;;;;;17.53;10.97;;;13.90;99.90;;;;;;5051911;28;20809;-72
2022/04/24 01:30:27;;;;;;;15.23;7.43;;;13.90;99.90;;;;;;5052240;28;20442;-71
2022/04/24 01:32:54;;;;;;;14.27;11.07;;;13.90;99.90;;;;;;5052195;28;20474;-71
2022/04/24 01:35:21;;;;;;;14.37;10.70;;;13.90;99.90;;;;;;5052107;28;20457;-73
2022/04/24 01:37:49;;;;;;;18.47;13.27;;;13.90;99.90;;;;;;5051384;28;20457;-72
2022/04/24 01:40:16;;;;;;;17.03;12.27;;;13.90;99.90;;;;;;5051488;28;20461;-71
2022/04/24 01:42:44;;;;;;;20.77;12.40;;;14.00;99.90;;;;;;5051505;28;20461;-71
2022/04/24 01:45:11;;;;;;;19.10;11.10;;;14.00;99.90;;;;;;5051567;28;20852;-72
2022/04/24 01:47:38;;;;;;;17.17;8.03;;;14.00;99.90;;;;;;5051525;28;20568;-71
2022/04/24 01:50:06;;;;;;;14.87;9.10;;;14.10;99.90;;;;;;5051092;28;20494;-71
2022/04/24 01:52:33;;;;;;;14.33;8.60;;;14.10;99.90;;;;;;5051428;28;20454;-73
2022/04/24 01:55:01;;;;;;;13.60;8.10;;;14.00;99.90;;;;;;5051456;28;20457;-72
2022/04/24 01:57:28;;;;;;;14.63;9.70;;;14.00;99.90;;;;;;5051318;28;20446;-72
2022/04/24 01:59:55;;;;;;;17.17;10.57;;;13.90;99.90;;;;;;5051087;28;20450;-73
2022/04/24 02:02:22;;;;;;;16.30;10.10;;;14.00;99.90;;;;;;5051448;28;20458;-73
2022/04/24 02:04:49;;;;;;;15.43;9.13;;;14.00;99.90;;;;;;5051073;28;20500;-72
2022/04/24 02:07:16;;;;;;;11.70;7.40;;;14.00;99.90;;;;;;5050895;28;21005;-71
2022/04/24 02:09:43;;;;;;;10.80;6.93;;;13.90;99.90;;;;;;5050082;28;20454;-71
2022/04/24 02:12:12;;;;;;;10.70;6.50;;;13.80;99.90;;;;;;5051390;28;20454;-71
2022/04/24 02:14:39;;;;;;;13.30;7.10;;;13.70;99.90;;;;;;5050990;28;20477;-71
2022/04/24 02:17:06;;;;;;;17.50;7.77;;;13.80;99.90;;;;;;5050987;28;20450;-71
2022/04/24 02:19:33;;;;;;;12.80;7.90;;;13.80;99.90;;;;;;5050820;28;20484;-71
2022/04/24 02:22:00;;;;;;;12.53;8.00;;;13.60;99.90;;;;;;5050852;28;20454;-72
2022/04/24 02:24:27;;;;;;;8.23;6.50;;;13.60;99.90;;;;;;5050762;28;20529;-73
2022/04/24 02:26:54;;;;;;;13.90;8.03;;;13.40;99.90;;;;;;5050954;28;20477;-72
2022/04/24 02:29:23;;;;;;;12.50;5.30;;;13.30;99.90;;;;;;5051012;28;20791;-71
2022/04/24 02:31:50;;;;;;;8.70;4.50;;;13.20;99.90;;;;;;5050860;28;20452;-72
2022/04/24 02:34:17;;;;;;;7.90;4.30;;;13.00;99.90;;;;;;5050586;28;20474;-71
2022/04/24 02:36:44;;;;;;;11.77;4.97;;;13.10;99.90;;;;;;5050629;28;20462;-71
2022/04/24 02:39:11;;;;;;;10.57;6.80;;;13.00;99.90;;;;;;5050710;28;20458;-71
2022/04/24 02:41:38;;;;;;;24.37;12.47;;;12.90;99.90;;;;;;5050782;28;20458;-70
2022/04/24 02:44:06;;;;;;;11.47;4.40;;;12.90;99.90;;;;;;5050475;28;20485;-74
2022/04/24 02:46:34;;;;;;;15.03;5.00;;;12.80;99.90;;;;;;5050457;28;20528;-73
2022/04/24 02:49:01;;;;;;;8.77;5.73;;;12.70;99.90;;;;;;5050269;28;20854;-72
2022/04/24 02:51:28;;;;;;;11.53;5.50;;;12.70;99.90;;;;;;5050281;28;20907;-70
2022/04/24 02:53:55;;;;;;;9.57;6.07;;;12.70;99.90;;;;;;5050376;28;20474;-71
2022/04/24 02:56:22;;;;;;;9.67;4.67;;;12.70;99.90;;;;;;5050346;28;20961;-71
2022/04/24 02:58:49;;;;;;;7.80;4.30;;;12.50;99.90;;;;;;5049938;28;20450;-71
2022/04/24 03:01:18;;;;;;;9.40;5.50;;;12.30;99.90;;;;;;5050036;28;20454;-72
2022/04/24 03:03:46;;;;;;;10.60;6.93;;;12.30;99.90;;;;;;5050222;28;20477;-72
2022/04/24 03:06:13;;;;;;;15.70;7.20;;;12.50;99.90;;;;;;5050034;28;20458;-72
2022/04/24 03:08:41;;;;;;;10.17;6.57;;;12.50;99.90;;;;;;5050031;28;20485;-71
2022/04/24 03:11:08;;;;;;;12.13;6.17;;;12.60;99.90;;;;;;5050005;28;20828;-71
2022/04/24 03:13:35;;;;;;;8.60;6.90;;;12.70;99.90;;;;;;5049521;28;20962;-70
2022/04/24 03:16:03;;;;;;;11.77;6.70;;;12.80;99.90;;;;;;5050020;28;20446;-73
2022/04/24 03:18:30;;;;;;;13.17;7.83;;;12.90;99.90;;;;;;5048545;28;20946;-71
2022/04/24 03:20:58;;;;;;;14.00;8.60;;;12.90;99.90;;;;;;5049680;28;20468;-71
2022/04/24 03:23:25;;;;;;;11.53;7.80;;;12.90;99.90;;;;;;5049885;28;20477;-72
2022/04/24 03:25:53;;;;;;;11.83;7.37;;;12.80;99.90;;;;;;5049952;28;20458;-74
2022/04/24 03:28:20;;;;;;;10.57;6.70;;;12.80;99.90;;;;;;5049699;28;20807;-72
2022/04/24 03:30:47;;;;;;;11.17;7.93;;;12.90;99.90;;;;;;5049685;28;21419;-71
2022/04/24 03:33:14;;;;;;;9.33;6.50;;;12.90;99.90;;;;;;5049897;28;20860;-72
2022/04/24 03:35:41;;;;;;;10.53;7.60;;;13.00;99.90;;;;;;5049460;28;20450;-72
2022/04/24 03:38:09;;;;;;;13.87;7.10;;;13.00;99.90;;;;;;5049842;28;20515;-71
2022/04/24 03:40:37;;;;;;;12.43;8.10;;;13.00;99.90;;;;;;5049941;28;20869;-71
2022/04/24 03:43:04;;;;;;;12.47;7.57;;;13.00;99.90;;;;;;5049572;28;20522;-71
2022/04/24 03:45:31;;;;;;;13.47;8.07;;;13.00;99.90;;;;;;5049587;28;20460;-71
2022/04/24 03:47:59;;;;;;;12.30;8.20;;;12.90;99.90;;;;;;5049350;28;20895;-72
2022/04/24 03:50:26;;;;;;;10.23;7.57;;;13.00;99.90;;;;;;5049447;28;20997;-72
2022/04/24 03:52:53;;;;;;;12.10;7.40;;;13.10;99.90;;;;;;5049454;28;20466;-71
2022/04/24 03:55:21;;;;;;;14.97;7.80;;;13.10;99.90;;;;;;5049088;28;20845;-70
2022/04/24 03:57:48;;;;;;;13.10;7.53;;;12.90;99.90;;;;;;5049134;28;20453;-71
2022/04/24 04:00:17;;;;;;;11.13;6.20;;;12.90;99.90;;;;;;5049228;28;20454;-73
2022/04/24 04:02:45;;;;;;;11.50;7.60;;;12.80;99.90;;;;;;5049407;28;20465;-73
2022/04/24 04:05:12;;;;;;;12.17;8.07;;;12.80;99.90;;;;;;5049493;28;20943;-72
2022/04/24 04:07:40;;;;;;;10.07;6.80;;;12.90;99.90;;;;;;5049017;28;20551;-71
2022/04/24 04:10:08;;;;;;;14.20;7.10;;;12.90;99.90;;;;;;5049354;28;20489;-72
2022/04/24 04:12:36;;;;;;;14.03;7.27;;;13.00;99.90;;;;;;5049407;28;20477;-71
2022/04/24 04:15:04;;;;;;;12.87;8.33;;;13.00;99.90;;;;;;5049426;28;20457;-70
2022/04/24 04:17:32;;;;;;;12.03;7.50;;;13.00;99.90;;;;;;5049764;28;20809;-71
2022/04/24 04:19:59;;;;;;;10.67;7.73;;;13.10;99.90;;;;;;5049614;28;20450;-72
2022/04/24 04:22:26;;;;;;;14.70;6.73;;;13.20;99.90;;;;;;5048903;28;20453;-71
2022/04/24 04:24:53;;;;;;;14.17;7.47;;;13.30;99.90;;;;;;5049445;28;20453;-71
2022/04/24 04:27:21;;;;;;;10.90;6.60;;;13.40;99.90;;;;;;5049221;28;20450;-71
2022/04/24 04:29:50;;;;;;;10.10;6.67;;;13.40;99.90;;;;;;5049207;28;20954;-72
2022/04/24 04:32:17;;;;;;;11.90;6.40;;;13.50;99.90;;;;;;5050204;28;20452;-73
2022/04/24 04:34:44;;;;;;;9.40;6.10;;;13.60;99.90;;;;;;5053089;28;20481;-72
2022/04/24 04:37:11;;;;;;;11.83;5.57;;;13.60;99.90;;;;;;5052688;28;20454;-71
2022/04/24 04:39:38;;;;;;;11.70;6.00;;;13.60;99.90;;;;;;5052887;28;20441;-71
2022/04/24 04:42:06;;;;;;;9.43;5.40;;;13.70;99.90;;;;;;5052983;28;20462;-73
2022/04/24 04:44:33;;;;;;;8.77;5.90;;;13.90;99.90;;;;;;5053090;28;20485;-72
2022/04/24 04:47:01;;;;;;;9.93;5.07;;;13.80;99.90;;;;;;5052407;28;20517;-74
2022/04/24 04:49:29;;;;;;;8.13;4.90;;;14.00;99.90;;;;;;5052480;28;20500;-73
2022/04/24 04:51:56;;;;;;;8.27;5.17;;;14.10;99.90;;;;;;5052506;28;20821;-71
2022/04/24 04:54:23;;;;;;;11.50;5.77;;;14.20;99.90;;;;;;5052644;28;20473;-77
2022/04/24 04:56:50;;;;;;;9.40;5.27;;;14.30;99.90;;;;;;5053030;28;20536;-72
2022/04/24 04:59:18;;;;;;;12.67;6.33;;;14.40;99.90;;;;;;5053626;28;20438;-71
2022/04/24 05:01:45;;;;;;;8.87;5.20;;;14.50;99.90;;;;;;5054225;28;20446;-73
2022/04/24 05:04:13;;;;;;;9.03;5.90;;;14.50;99.90;;;;;;5052482;28;20599;-65
2022/04/24 05:06:40;;;;;;;10.63;5.20;;;14.60;99.90;;;;;;5052125;28;20493;-65
2022/04/24 05:09:07;;;;;;;9.67;5.97;;;14.70;99.90;;;;;;5052250;28;20492;-66
2022/04/24 05:11:34;;;;;;;9.17;6.97;;;14.80;99.90;;;;;;5052505;28;20462;-67
2022/04/24 05:14:02;;;;;;;11.53;8.10;;;14.90;99.90;;;;;;5052263;28;20474;-66
2022/04/24 05:16:29;;;;;;;13.63;8.70;;;15.00;99.90;;;;;;5052353;28;20450;-65
2022/04/24 05:18:56;;;;;;;14.40;8.83;;;15.10;99.90;;;;;;5051947;28;20515;-66
2022/04/24 05:21:25;;;;;;;14.80;9.10;;;15.20;99.90;;;;;;5052218;28;20485;-68
2022/04/24 05:23:52;;;;;;;16.73;10.37;;;15.20;99.90;;;;;;5052245;28;20519;-66
2022/04/24 05:26:20;;;;;;;16.93;11.93;;;15.10;99.90;;;;;;5051714;28;20456;-68
2022/04/24 05:28:47;;;;;;;15.23;11.97;;;15.10;99.90;;;;;;5051572;28;20616;-65
2022/04/24 05:31:14;;;;;;;17.90;9.60;;;15.10;99.90;;;;;;5051843;28;20519;-66
2022/04/24 05:33:42;;;;;;;16.80;11.90;;;15.00;99.90;;;;;;5051707;28;20803;-65
2022/04/24 05:36:09;;;;;;;14.50;11.73;;;15.10;99.90;;;;;;5051705;28;20810;-65
2022/04/24 05:38:38;;;;;;;12.47;10.20;;;15.20;99.90;;;;;;5051910;28;20446;-65
2022/04/24 05:41:05;;;;;;;14.73;8.90;;;15.30;99.90;;;;;;5051992;28;20446;-66
2022/04/24 05:43:32;;;;;;;13.70;9.63;;;15.30;99.90;;;;;;5051502;28;20548;-68
2022/04/24 05:46:00;;;;;;;11.30;8.37;;;15.30;99.90;;;;;;5051659;28;20450;-65
2022/04/24 05:48:27;;;;;;;13.00;9.13;;;15.30;99.90;;;;;;5051457;28;20883;-71
2022/04/24 05:50:54;;;;;;;12.03;9.60;;;15.20;99.90;;;;;;5051746;28;20450;-65
2022/04/24 05:53:21;;;;;;;13.83;8.77;;;15.20;99.90;;;;;;5051635;28;20481;-66
2022/04/24 05:55:50;;;;;;;13.10;7.73;;;15.40;99.90;;;;;;5051412;28;20843;-65
2022/04/24 05:58:17;;;;;;;8.57;6.83;;;15.40;99.90;;;;;;5051580;28;20442;-65
2022/04/24 06:00:45;;;;;;;13.67;8.43;;;15.40;99.90;;;;;;5051486;28;20450;-65
2022/04/24 06:03:12;;;;;;;8.93;7.27;;;15.60;99.90;;;;;;5051396;28;20477;-66
2022/04/24 06:05:39;;;;;;;14.13;7.60;;;15.60;99.90;;;;;;5051459;28;20888;-71
2022/04/24 06:08:06;;;;;;;12.83;8.60;;;15.80;99.90;;;;;;5051340;28;20453;-74
2022/04/24 06:10:33;;;;;;;11.70;8.00;;;15.90;99.90;;;;;;5051228;28;20477;-73
2022/04/24 06:13:02;;;;;;;14.50;7.13;;;16.00;99.90;;;;;;5050979;28;20474;-73
2022/04/24 06:15:30;;;;;;;9.37;6.53;;;16.20;99.90;;;;;;5050885;28;20846;-69
2022/04/24 06:17:59;;;;;;;11.87;7.43;;;16.30;99.90;;;;;;5051035;28;20527;-70
2022/04/24 06:20:27;;;;;;;9.60;7.00;;;16.40;99.90;;;;;;5051133;28;20472;-72
2022/04/24 06:22:56;;;;;;;10.27;7.80;;;16.50;99.90;;;;;;5049469;28;20474;-71
2022/04/24 06:25:26;;;;;;;10.07;7.70;;;16.70;99.90;;;;;;5050498;28;20458;-71
2022/04/24 06:27:53;;;;;;;14.83;6.10;;;16.70;99.90;;;;;;5050716;28;20450;-70
2022/04/24 06:30:24;;;;;;;8.33;5.67;;;16.90;99.90;;;;;;5050809;28;20450;-74
2022/04/24 06:32:51;;;;;;;7.60;4.60;;;17.10;99.90;;;;;;5050724;28;20473;-73
2022/04/24 06:35:19;;;;;;;10.57;5.80;;;17.20;99.90;;;;;;5050727;28;20812;-74
2022/04/24 06:37:47;;;;;;;11.30;5.10;;;17.40;99.90;;;;;;5050919;28;20921;-73
2022/04/24 06:40:16;;;;;;;9.73;4.60;;;17.60;99.90;;;;;;5050299;28;20442;-72
2022/04/24 06:42:51;;;;;;;7.30;4.50;;;17.70;99.90;;;;;;5050335;28;20449;-71
2022/04/24 06:45:21;;;;;;;7.20;4.30;;;17.80;99.90;;;;;;5050455;28;20453;-73
2022/04/24 06:47:49;;;;;;;9.57;4.37;;;18.00;99.90;;;;;;5050459;28;20465;-73
2022/04/24 06:50:17;;;;;;;8.60;3.80;;;18.10;99.90;;;;;;5049856;28;20998;-76
2022/04/24 06:52:44;;;;;;;7.03;3.87;;;18.20;99.90;;;;;;5050171;28;20462;-76
2022/04/24 06:55:11;;;;;;;6.60;4.37;;;18.30;99.90;;;;;;5049471;28;20454;-74
2022/04/24 06:57:38;;;;;;;6.80;3.80;;;18.40;99.90;;;;;;5050269;28;20450;-71
2022/04/24 07:00:07;;;;;;;11.40;3.70;;;18.50;99.90;;;;;;5050253;28;20450;-74
2022/04/24 07:02:34;;;;;;;11.13;4.50;;;18.70;99.90;;;;;;5050135;28;20450;-71
2022/04/24 07:05:02;;;;;;;6.00;3.20;;;18.90;99.90;;;;;;5049781;28;20466;-71
2022/04/24 07:07:30;;;;;;;7.50;3.77;;;19.10;99.90;;;;;;5050095;28;20461;-73
2022/04/24 07:09:57;;;;;;;8.07;3.40;;;19.30;99.90;;;;;;5049834;28;20512;-72
2022/04/24 07:12:24;;;;;;;4.97;2.97;;;19.50;99.90;;;;;;5050078;28;20445;-70
2022/04/24 07:14:51;;;;;;;5.60;2.80;;;19.60;99.90;;;;;;5049406;28;20474;-71
2022/04/24 07:17:18;;;;;;;5.60;3.57;;;19.80;99.90;;;;;;5049952;28;20561;-72
2022/04/24 07:19:45;;;;;;;6.77;3.80;;;19.90;99.90;;;;;;5049661;28;20450;-71
2022/04/24 07:22:14;;;;;;;6.50;2.87;;;20.00;99.90;;;;;;5049870;28;20457;-72
2022/04/24 07:24:41;;;;;;;6.43;3.07;;;20.10;99.90;;;;;;5049746;28;20474;-73
2022/04/24 07:27:08;;;;;;;9.33;3.60;;;20.30;99.90;;;;;;5049813;28;20461;-72
2022/04/24 07:29:35;;;;;;;7.30;3.13;;;20.50;99.60;;;;;;5049597;28;20485;-71
2022/04/24 07:32:02;;;;;;;7.40;2.80;;;20.50;99.60;;;;;;5049407;28;20508;-69
2022/04/24 07:34:30;;;;;;;5.80;2.73;;;20.60;98.50;;;;;;5049383;28;20483;-70
2022/04/24 07:36:57;;;;;;;10.30;2.87;;;20.70;97.70;;;;;;5049593;28;20449;-65
2022/04/24 07:39:25;;;;;;;7.20;2.40;;;20.80;97.00;;;;;;5050127;28;20441;-71
2022/04/24 07:41:52;;;;;;;6.10;3.17;;;20.90;96.20;;;;;;5049906;28;20453;-73
2022/04/24 07:44:21;;;;;;;9.53;3.50;;;21.10;96.70;;;;;;5049740;28;20466;-71
2022/04/24 07:46:48;;;;;;;6.40;3.17;;;21.30;96.60;;;;;;5049050;28;20481;-72
2022/04/24 07:49:15;;;;;;;8.40;3.60;;;21.50;96.00;;;;;;5048917;28;20505;-72
2022/04/24 07:51:42;;;;;;;8.77;3.73;;;21.60;95.70;;;;;;5049307;28;20457;-72
2022/04/24 07:54:09;;;;;;;9.23;4.10;;;21.80;94.80;;;;;;5049387;28;20481;-73
2022/04/24 07:56:39;;;;;;;6.47;3.83;;;21.90;94.20;;;;;;5049104;28;20458;-73
2022/04/24 07:59:06;;;;;;;7.43;3.50;;;22.00;94.20;;;;;;5048868;28;20557;-72
2022/04/24 08:01:33;;;;;;;7.43;3.30;;;22.20;93.90;;;;;;5049322;28;20579;-71
2022/04/24 08:04:00;;;;;;;7.27;3.57;;;22.30;93.30;;;;;;5049463;28;20588;-72
2022/04/24 08:06:27;;;;;;;7.00;3.40;;;22.50;93.30;;;;;;5050549;28;20528;-72
2022/04/24 08:08:54;;;;;;;6.90;2.90;;;22.60;92.90;;;;;;5053240;28;20489;-73
2022/04/24 08:11:21;;;;;;;11.50;4.70;;;22.60;92.20;;;;;;5053124;28;20484;-72
2022/04/24 08:13:50;;;;;;;11.00;5.23;;;22.70;91.90;;;;;;5053138;28;20449;-72
2022/04/24 08:16:17;;;;;;;10.40;5.50;;;22.90;92.00;;;;;;5053022;28;20453;-73
2022/04/24 08:18:44;;;;;;;8.60;4.83;;;23.10;90.80;;;;;;5053305;28;20458;-73
2022/04/24 08:21:12;;;;;;;9.90;5.90;;;23.30;90.70;;;;;;5053043;28;20783;-72
2022/04/24 08:23:39;;;;;;;9.60;5.03;;;23.40;90.10;;;;;;5052911;28;20878;-72
2022/04/24 08:26:07;;;;;;;9.83;5.00;;;23.50;90.40;;;;;;5052995;28;20453;-71
2022/04/24 08:28:34;;;;;;;9.30;4.50;;;23.50;88.10;;;;;;5052597;28;20453;-75
2022/04/24 08:31:03;;;;;;;6.10;4.30;;;23.50;89.90;;;;;;5052826;28;20452;-71
2022/04/24 08:33:30;;;;;;;7.87;4.57;;;23.50;89.00;;;;;;5052954;28;20457;-74
2022/04/24 08:35:58;;;;;;;6.13;3.90;;;23.60;88.40;;;;;;5052939;28;20879;-74
2022/04/24 08:38:25;;;;;;;9.00;3.53;;;23.70;87.30;;;;;;5052932;28;20464;-73
2022/04/24 08:40:54;;;;;;;6.80;4.03;;;23.80;85.20;;;;;;5052449;28;20449;-72
2022/04/24 08:43:24;;;;;;;11.70;4.10;;;23.80;83.50;;;;;;5052517;28;20523;-72
2022/04/24 08:45:52;;;;;;;10.47;3.43;;;23.80;83.80;;;;;;5052881;28;20452;-72
2022/04/24 08:48:22;;;;;;;7.73;3.53;;;23.90;83.60;;;;;;5052491;28;20837;-73
2022/04/24 08:50:49;;;;;;;10.00;3.40;;;24.10;81.50;;;;;;5052267;28;20832;-76
2022/04/24 08:53:18;;;;;;;6.43;3.00;;;24.10;80.00;;;;;;5052430;28;20474;-75
2022/04/24 08:55:45;;;;;;;8.50;3.20;;;24.20;81.70;;;;;;5052630;28;20453;-73
2022/04/24 08:58:12;;;;;;;7.40;2.90;;;24.30;80.90;;;;;;5052456;28;20801;-74
2022/04/24 09:00:43;;;;;;;6.53;2.87;;;24.40;80.80;;;;;;5053299;28;21044;-70
2022/04/24 09:03:10;;;;;;;7.27;3.00;;;24.40;80.20;;;;;;5053062;28;20509;-72
2022/04/24 09:05:39;;;;;;;6.57;3.00;;;24.50;79.80;;;;;;5052115;28;20462;-70
2022/04/24 09:08:08;;;;;;;11.47;3.10;;;24.60;78.50;;;;;;5052364;28;20515;-70
2022/04/24 09:10:50;;;;;;;6.07;2.30;;;24.60;78.50;;;;;;5051950;28;20528;-69
2022/04/24 09:13:26;;;;;;;5.20;2.30;;;24.90;78.70;;;;;;5052223;28;20474;-72
2022/04/24 09:15:55;;;;;;;7.47;2.83;;;25.20;76.20;;;;;;5052435;28;20495;-74
2022/04/24 09:18:22;;;;;;;5.53;2.50;;;25.30;76.70;;;;;;5051021;28;20553;-73
2022/04/24 09:20:56;;;;;;;5.40;2.80;;;25.30;76.60;;;;;;5052005;28;20446;-72
2022/04/24 09:23:33;;;;;;;6.20;2.23;;;25.50;76.70;;;;;;5051979;28;20477;-70
2022/04/24 09:26:02;;;;;;;7.37;2.60;;;25.50;74.10;;;;;;5051963;28;20457;-73
2022/04/24 09:28:43;;;;;;;10.70;3.60;;;25.70;75.20;;;;;;5052165;28;20461;-71
2022/04/24 09:31:11;;;;;;;6.13;2.20;;;26.00;74.00;;;;;;5051540;28;20497;-75
2022/04/24 09:33:39;;;;;;;7.23;2.50;;;26.10;74.60;;;;;;5052026;28;20489;-75
2022/04/24 09:36:09;;;;;;;5.57;2.60;;;26.00;73.20;;;;;;5051845;28;20461;-75
2022/04/24 09:38:43;;;;;;;8.37;2.50;;;25.80;74.10;;;;;;5051788;28;20446;-75
2022/04/24 09:41:17;;;;;;;6.40;2.53;;;26.00;75.80;;;;;;5051100;28;21020;-76
2022/04/24 09:43:44;;;;;;;5.50;2.30;;;26.00;75.50;;;;;;5051536;28;21333;-72
2022/04/24 09:46:11;;;;;;;5.37;2.40;;;26.20;73.30;;;;;;5051482;28;20831;-77
2022/04/24 09:48:38;;;;;;;6.57;2.80;;;26.30;73.60;;;;;;5051471;28;20486;-77
2022/04/24 09:51:07;;;;;;;5.23;2.33;;;26.40;72.20;;;;;;5051511;28;20493;-73
2022/04/24 09:53:42;;;;;;;5.47;2.07;;;26.60;70.60;;;;;;5051760;28;20449;-74
2022/04/24 09:56:10;;;;;;;4.90;2.37;;;26.70;69.10;;;;;;5051356;28;20449;-77
2022/04/24 09:58:38;;;;;;;7.90;2.80;;;26.70;67.80;;;;;;5051356;28;20454;-75
2022/04/24 10:01:08;;;;;;;7.73;2.43;;;26.80;66.50;;;;;;5051182;28;20522;-75
2022/04/24 10:03:37;;;;;;;9.73;2.10;;;26.90;68.30;;;;;;5051600;28;20497;-75
2022/04/24 10:06:05;;;;;;;8.10;2.40;;;27.00;67.00;;;;;;5051568;28;20528;-75
2022/04/24 10:08:34;;;;;;;5.57;2.10;;;27.00;63.30;;;;;;5051435;28;20464;-77
2022/04/24 10:11:05;;;;;;;5.83;2.57;;;26.80;64.20;;;;;;5051287;28;20493;-71
2022/04/24 10:13:36;;;;;;;5.30;2.47;;;27.10;65.90;;;;;;5051369;28;20797;-73
2022/04/24 10:16:15;;;;;;;6.07;2.67;;;27.30;64.40;;;;;;5051170;28;20481;-75
2022/04/24 10:18:55;;;;;;;6.50;2.30;;;27.50;63.10;;;;;;5051075;28;20614;-72
2022/04/24 10:21:56;;;;;;;5.60;2.63;;;27.60;62.80;;;;;;5050596;28;20943;-74
2022/04/24 10:24:23;;;;;;;5.50;2.40;;;27.60;62.20;;;;;;5014552;28;20462;-73
2022/04/24 10:26:57;;;;;;;4.77;2.13;;;27.80;61.30;;;;;;5050939;28;20457;-76
2022/04/24 10:29:24;;;;;;;6.30;2.47;;;28.00;61.40;;;;;;5050208;28;20450;-73
2022/04/24 10:31:52;;;;;;;6.37;2.33;;;28.10;60.90;;;;;;5049939;28;20838;-76
2022/04/24 10:34:20;;;;;;;7.80;2.40;;;28.20;61.70;;;;;;5050863;28;20907;-73
2022/04/24 10:36:55;;;;;;;8.17;2.63;;;28.30;60.60;;;;;;5050498;28;20461;-75
2022/04/24 10:39:24;;;;;;;7.30;3.50;;;28.30;60.60;;;;;;5050581;28;20870;-74
2022/04/24 10:41:57;;;;;;;6.80;2.93;;;28.40;60.90;;;;;;5050591;28;20469;-72
2022/04/24 10:44:24;;;;;;;7.10;2.80;;;28.40;59.80;;;;;;5050578;28;20442;-75
2022/04/24 10:46:53;;;;;;;17.87;7.93;;;28.40;60.00;;;;;;5050118;28;20466;-77
2022/04/24 10:49:21;;;;;;;8.23;3.83;;;28.70;59.30;;;;;;5050015;28;20990;-75
2022/04/24 10:52:03;;;;;;;6.90;2.20;;;28.90;58.50;;;;;;5136121;27;20318;-74
2022/04/24 10:54:35;;;;;;;6.33;2.30;;;28.90;56.80;;;;;;5107357;28;20462;-72
2022/04/24 10:57:14;;;;;;;10.67;5.70;;;29.00;56.90;;;;;;5106921;28;20483;-72
2022/04/24 10:59:48;;;;;;;10.17;5.30;;;28.70;57.80;;;;;;5107334;28;20479;-77
2022/04/24 11:02:20;;;;;;;5.13;2.10;;;28.80;57.60;;;;;;5107125;28;21110;-75
2022/04/24 11:04:47;;;;;;;5.33;1.80;;;28.80;56.10;;;;;;5107087;28;20454;-75
2022/04/24 11:07:22;;;;;;;4.57;2.57;;;28.50;55.60;;;;;;5107044;28;20810;-76
2022/04/24 11:09:49;;;;;;;9.17;4.30;;;28.40;54.90;;;;;;5107061;28;20967;-77
2022/04/24 11:12:16;;;;;;;9.27;5.17;;;28.70;56.10;;;;;;5107016;28;20804;-74
2022/04/24 11:14:43;;;;;;;13.50;8.10;;;29.00;57.00;;;;;;5106956;28;20817;-72
2022/04/24 11:17:11;;;;;;;4.97;1.80;;;29.30;56.40;;;;;;5107012;28;20451;-76
2022/04/24 11:19:40;;;;;;;8.93;4.60;;;29.50;55.40;;;;;;5106792;28;20443;-76
2022/04/24 11:22:10;;;;;;;6.40;3.47;;;29.80;54.90;;;;;;5106724;28;20455;-74
2022/04/24 11:24:41;;;;;;;8.53;2.97;;;29.90;54.00;;;;;;5106523;28;20852;-76
2022/04/24 11:27:11;;;;;;;8.20;4.30;;;29.80;54.30;;;;;;5106664;28;20462;-76
2022/04/24 11:29:38;;;;;;;7.60;3.40;;;30.10;55.00;;;;;;5106648;28;20550;-75
2022/04/24 11:32:08;;;;;;;7.00;3.57;;;30.10;53.40;;;;;;5106461;28;20447;-73
2022/04/24 11:34:37;;;;;;;6.27;2.40;;;30.20;53.50;;;;;;5106454;28;20503;-77
2022/04/24 11:37:05;;;;;;;4.60;2.00;;;30.30;53.10;;;;;;5106525;28;20455;-74
2022/04/24 11:39:33;;;;;;;11.60;4.80;;;30.30;52.30;;;;;;5106543;28;20462;-76
2022/04/24 11:42:02;;;;;;;7.30;2.63;;;30.30;51.50;;;;;;5106494;28;20800;-75
2022/04/24 11:50:16;;;;;;;6.90;2.30;;;30.50;49.70;;;;;;5106007;28;20586;-76
2022/04/24 11:52:46;;;;;;;7.10;2.33;;;30.50;49.30;;;;;;5105962;28;20954;-75
2022/04/24 11:55:15;;;;;;;4.67;1.90;;;30.50;50.00;;;;;;5106195;28;20538;-76
2022/04/24 11:57:44;;;;;;;5.80;2.60;;;30.50;48.80;;;;;;5106094;28;20469;-74
2022/04/24 12:00:18;;;;;;;6.70;2.23;;;29.90;49.40;;;;;;5105871;28;20455;-77
2022/04/24 12:02:46;;;;;;;5.30;2.00;;;29.50;49.90;;;;;;5095456;28;20471;-75
2022/04/24 12:05:13;;;;;;;9.50;2.40;;;29.50;50.20;;;;;;5092268;28;20452;-75
2022/04/24 12:07:40;;;;;;;7.20;2.30;;;29.30;50.80;;;;;;5092466;28;20448;-78
2022/04/24 12:10:09;;;;;;;9.50;2.30;;;29.50;51.30;;;;;;5092208;28;20997;-75
2022/04/24 12:12:48;;;;;;;7.20;3.00;;;29.60;51.90;;;;;;5092010;28;20552;-74
2022/04/24 12:15:16;;;;;;;4.90;2.60;;;29.50;50.50;;;;;;5092475;28;20484;-76
2022/04/24 12:17:50;;;;;;;7.87;1.80;;;29.40;50.60;;;;;;5092079;28;20460;-76
2022/04/24 12:20:18;;;;;;;6.13;3.37;;;29.50;51.80;;;;;;5092338;28;20467;-77
2022/04/24 12:22:45;;;;;;;5.40;2.23;;;29.90;51.40;;;;;;5091902;28;20956;-77
2022/04/24 12:25:15;;;;;;;8.33;4.10;;;30.20;51.20;;;;;;5092308;28;20513;-75
2022/04/24 12:27:53;;;;;;;11.77;3.87;;;30.50;51.70;;;;;;5092327;28;20456;-76
2022/04/24 12:30:21;;;;;;;6.37;2.00;;;30.90;49.90;;;;;;5091781;28;20976;-73
2022/04/24 12:32:48;;;;;;;7.33;2.47;;;31.00;48.40;;;;;;5091757;28;21000;-74
2022/04/24 12:35:34;;;;;;;6.83;2.07;;;31.00;49.10;;;;;;5091349;28;20531;-75
2022/04/24 12:38:01;;;;;;;6.97;2.60;;;31.30;49.20;;;;;;5091857;28;20487;-77
2022/04/24 12:40:28;;;;;;;11.30;2.77;;;31.60;48.60;;;;;;5091859;28;20443;-75
2022/04/24 12:42:58;;;;;;;4.30;1.53;;;31.70;47.80;;;;;;5091364;28;20471;-76
2022/04/24 12:45:26;;;;;;;8.67;2.30;;;31.80;48.80;;;;;;5091526;28;20455;-76
2022/04/24 12:47:53;;;;;;;6.27;2.83;;;31.80;49.20;;;;;;5091702;28;20457;-74
2022/04/24 12:50:20;;;;;;;7.43;2.27;;;32.00;47.70;;;;;;5091057;28;20492;-77
2022/04/24 12:52:48;;;;;;;7.17;2.47;;;32.10;47.30;;;;;;5091681;28;20468;-74
2022/04/24 12:55:15;;;;;;;6.87;3.13;;;32.20;48.00;;;;;;5091418;28;20455;-69